createdAt,value
2023-03-15T00:01:52.367Z,2.30
2023-03-15T00:04:19.370Z,2.40
2023-03-15T00:06:46.021Z,2.40
2023-03-15T00:09:12.847Z,2.50
2023-03-15T00:11:40.077Z,2.40
2023-03-15T00:14:06.776Z,2.40
2023-03-15T00:16:33.518Z,2.40
2023-03-15T00:19:00.684Z,2.40
2023-03-15T00:21:29.734Z,2.40
2023-03-15T00:23:57.012Z,2.40
2023-03-15T00:26:23.695Z,2.20
2023-03-15T00:28:50.369Z,2.30
2023-03-15T00:31:22.881Z,2.20
2023-03-15T00:33:53.692Z,2.30
2023-03-15T00:36:24.387Z,2.20
2023-03-15T00:38:53.622Z,2.20
2023-03-15T00:41:21.985Z,2.20
2023-03-15T00:43:49.292Z,2.10
2023-03-15T00:46:16.798Z,2.00
2023-03-15T00:48:43.660Z,2.00
2023-03-15T00:51:21.295Z,1.90
2023-03-15T00:53:49.149Z,1.90
2023-03-15T00:56:19.014Z,1.70
2023-03-15T00:58:46.507Z,1.70
2023-03-15T01:01:19.494Z,1.70
2023-03-15T01:03:46.669Z,1.70
2023-03-15T01:06:16.255Z,1.80
2023-03-15T01:08:44.444Z,1.80
2023-03-15T01:11:18.438Z,1.80
2023-03-15T01:13:45.452Z,1.90
2023-03-15T01:16:14.224Z,1.90
2023-03-15T01:18:43.584Z,1.90
2023-03-15T01:21:12.703Z,1.90
2023-03-15T01:23:40.008Z,1.90
2023-03-15T01:26:09.897Z,1.90
2023-03-15T01:28:37.099Z,1.80
2023-03-15T01:31:04.312Z,1.70
2023-03-15T01:33:31.134Z,1.70
2023-03-15T01:36:04.587Z,1.60
2023-03-15T01:38:33.540Z,1.60
2023-03-15T01:41:00.765Z,1.50
2023-03-15T01:43:29.331Z,1.50
2023-03-15T01:46:03.864Z,1.40
2023-03-15T01:48:44.509Z,1.30
2023-03-15T01:51:39.326Z,1.30
2023-03-15T01:54:06.144Z,1.30
2023-03-15T01:56:36.474Z,1.30
2023-03-15T01:59:08.791Z,1.20
2023-03-15T02:01:36.923Z,1.20
2023-03-15T02:04:09.509Z,1.30
2023-03-15T02:06:39.734Z,1.30
2023-03-15T02:09:15.039Z,1.20
2023-03-15T02:11:43.365Z,1.20
2023-03-15T02:14:13.381Z,1.20
2023-03-15T02:16:44.152Z,1.20
2023-03-15T02:19:33.970Z,1.30
2023-03-15T02:22:44.390Z,1.30
2023-03-15T02:25:19.910Z,1.30
2023-03-15T02:27:46.712Z,1.30
2023-03-15T02:30:15.152Z,1.30
2023-03-15T02:32:42.270Z,1.30
2023-03-15T02:35:09.243Z,1.40
2023-03-15T02:37:36.077Z,1.40
2023-03-15T02:40:05.811Z,1.40
2023-03-15T02:42:32.530Z,1.40
2023-03-15T02:44:59.312Z,1.30
2023-03-15T02:47:32.557Z,1.30
2023-03-15T02:49:59.464Z,1.40
2023-03-15T02:52:26.405Z,1.30
2023-03-15T02:54:54.116Z,1.20
2023-03-15T02:57:20.961Z,1.30
2023-03-15T02:59:50.664Z,1.30
2023-03-15T03:02:18.387Z,1.20
2023-03-15T03:04:45.587Z,1.20
2023-03-15T03:07:12.484Z,1.30
2023-03-15T03:09:52.748Z,1.30
2023-03-15T03:12:20.839Z,1.30
2023-03-15T03:14:48.854Z,1.20
2023-03-15T03:17:18.995Z,1.20
2023-03-15T03:19:46.067Z,1.20
2023-03-15T03:22:14.263Z,1.30
2023-03-15T03:24:45.773Z,1.10
2023-03-15T03:27:14.986Z,1.20
2023-03-15T03:29:44.637Z,1.10
2023-03-15T03:32:11.488Z,1.20
2023-03-15T03:34:38.409Z,1.20
2023-03-15T03:37:05.321Z,1.30
2023-03-15T03:39:50.810Z,1.20
2023-03-15T03:42:18.048Z,1.20
2023-03-15T03:44:44.884Z,1.30
2023-03-15T03:47:12.067Z,1.40
2023-03-15T03:49:39.659Z,1.50
2023-03-15T03:52:06.802Z,1.60
2023-03-15T03:54:33.964Z,1.50
2023-03-15T03:57:00.721Z,1.50
2023-03-15T03:59:31.856Z,1.60
2023-03-15T04:02:03.989Z,1.50
2023-03-15T04:04:31.440Z,1.70
2023-03-15T04:06:58.541Z,1.60
2023-03-15T04:09:30.401Z,1.70
2023-03-15T04:11:57.278Z,1.70
2023-03-15T04:14:25.409Z,1.70
2023-03-15T04:16:54.515Z,1.70
2023-03-15T04:19:22.071Z,1.70
2023-03-15T04:21:49.677Z,1.80
2023-03-15T04:24:25.567Z,1.80
2023-03-15T04:27:05.434Z,1.80
2023-03-15T04:29:52.996Z,1.80
2023-03-15T04:32:39.204Z,1.90
2023-03-15T04:35:39.219Z,1.80
2023-03-15T04:38:29.117Z,1.90
2023-03-15T04:41:15.424Z,1.90
2023-03-15T04:43:58.148Z,1.90
2023-03-15T04:46:36.346Z,1.90
2023-03-15T04:49:16.716Z,1.90
2023-03-15T04:52:03.832Z,1.80
2023-03-15T04:54:39.599Z,1.80
2023-03-15T04:57:41.389Z,1.80
2023-03-15T05:00:22.090Z,1.70
2023-03-15T05:03:00.837Z,1.90
2023-03-15T05:05:48.007Z,1.90
2023-03-15T05:08:33.675Z,2.00
2023-03-15T05:11:23.531Z,2.00
2023-03-15T05:13:50.264Z,1.90
2023-03-15T05:16:37.913Z,1.90
2023-03-15T05:19:27.982Z,2.00
2023-03-15T05:22:25.742Z,2.10
2023-03-15T05:25:11.389Z,2.00
2023-03-15T05:27:58.412Z,2.20
2023-03-15T05:30:33.542Z,2.20
2023-03-15T05:33:20.821Z,2.20
2023-03-15T05:36:06.209Z,2.10
2023-03-15T05:38:56.465Z,2.10
2023-03-15T05:41:43.250Z,2.10
2023-03-15T05:44:28.751Z,2.00
2023-03-15T05:47:21.769Z,2.00
2023-03-15T05:50:02.227Z,2.20
2023-03-15T05:52:58.459Z,2.30
2023-03-15T05:55:41.014Z,2.10
2023-03-15T05:58:26.369Z,2.10
2023-03-15T06:01:16.339Z,2.20
2023-03-15T06:04:10.938Z,2.20
2023-03-15T06:06:37.690Z,2.30
2023-03-15T06:09:07.367Z,2.40
2023-03-15T06:11:35.061Z,2.50
2023-03-15T06:14:02.103Z,2.50
2023-03-15T06:16:37.390Z,2.40
2023-03-15T06:19:04.587Z,2.50
2023-03-15T06:21:31.980Z,2.50
2023-03-15T06:23:59.408Z,2.60
2023-03-15T06:26:26.187Z,2.70
2023-03-15T06:28:57.840Z,2.70
2023-03-15T06:31:24.824Z,2.80
2023-03-15T06:33:59.995Z,2.80
2023-03-15T06:36:26.826Z,2.80
2023-03-15T06:38:54.487Z,2.80
2023-03-15T06:41:21.668Z,2.80
2023-03-15T06:43:52.263Z,2.80
2023-03-15T06:46:19.142Z,3.00
2023-03-15T06:48:45.898Z,3.00
2023-03-15T06:51:13.823Z,3.10
2023-03-15T06:53:41.339Z,3.30
2023-03-15T06:56:08.159Z,3.10
2023-03-15T06:58:34.868Z,3.20
2023-03-15T07:01:01.816Z,3.20
2023-03-15T07:03:28.635Z,3.20
2023-03-15T07:05:55.515Z,3.10
2023-03-15T07:08:23.871Z,3.20
2023-03-15T07:10:51.070Z,3.20
2023-03-15T07:13:18.917Z,3.10
2023-03-15T07:15:45.938Z,3.10
2023-03-15T07:18:12.638Z,3.30
2023-03-15T07:20:39.656Z,3.30
2023-03-15T07:23:06.381Z,3.40
2023-03-15T07:25:37.603Z,3.50
2023-03-15T07:28:08.844Z,3.60
2023-03-15T07:30:35.508Z,3.60
2023-03-15T07:33:02.345Z,3.60
2023-03-15T07:35:29.091Z,3.70
2023-03-15T07:37:55.949Z,3.60
2023-03-15T07:40:23.517Z,3.30
2023-03-15T07:42:50.242Z,3.40
2023-03-15T07:45:17.715Z,3.30
2023-03-15T07:47:44.788Z,3.30
2023-03-15T07:50:13.214Z,3.40
2023-03-15T07:52:41.255Z,3.20
2023-03-15T07:55:08.849Z,3.30
2023-03-15T07:57:35.545Z,3.00
2023-03-15T08:00:02.288Z,3.20
2023-03-15T08:02:39.347Z,3.40
2023-03-15T08:05:06.913Z,3.50
2023-03-15T08:07:33.714Z,3.30
2023-03-15T08:10:01.642Z,3.30
2023-03-15T08:12:30.003Z,3.30
2023-03-15T08:14:57.053Z,3.40
2023-03-15T08:17:23.749Z,3.40
2023-03-15T08:19:50.444Z,3.50
2023-03-15T08:22:17.117Z,3.60
2023-03-15T08:24:45.411Z,3.50
2023-03-15T08:27:12.185Z,3.60
2023-03-15T08:29:38.977Z,3.50
2023-03-15T08:32:05.972Z,3.50
2023-03-15T08:34:34.795Z,3.60
2023-03-15T08:37:01.838Z,3.60
2023-03-15T08:39:28.498Z,3.60
2023-03-15T08:41:55.466Z,3.60
2023-03-15T08:44:22.125Z,3.60
2023-03-15T08:46:48.784Z,3.40
2023-03-15T08:49:15.518Z,3.40
2023-03-15T08:51:42.188Z,3.50
2023-03-15T08:54:08.911Z,3.50
2023-03-15T08:56:35.647Z,3.60
2023-03-15T08:59:02.352Z,3.70
2023-03-15T09:01:30.207Z,3.70
2023-03-15T09:03:57.054Z,3.80
2023-03-15T09:06:23.740Z,4.00
2023-03-15T09:08:50.767Z,4.20
2023-03-15T09:11:17.465Z,4.30
2023-03-15T09:13:44.161Z,4.30
2023-03-15T09:16:10.865Z,4.30
2023-03-15T09:18:37.807Z,4.40
2023-03-15T09:21:05.596Z,4.30
2023-03-15T09:23:32.463Z,4.40
2023-03-15T09:25:59.337Z,4.50
2023-03-15T09:28:26.484Z,4.50
2023-03-15T09:30:54.110Z,4.50
2023-03-15T09:33:22.406Z,4.60
2023-03-15T09:35:55.063Z,4.60
2023-03-15T09:38:23.982Z,4.50
2023-03-15T09:40:55.967Z,4.50
2023-03-15T09:43:32.098Z,4.50
2023-03-15T09:46:15.773Z,4.20
2023-03-15T09:49:05.796Z,3.90
2023-03-15T09:51:57.203Z,3.80
2023-03-15T09:54:29.415Z,3.90
2023-03-15T09:57:10.454Z,3.90
2023-03-15T09:59:43.964Z,3.80
2023-03-15T10:02:24.543Z,3.80
2023-03-15T10:05:01.071Z,3.80
2023-03-15T10:07:27.852Z,3.80
2023-03-15T10:09:58.399Z,3.90
2023-03-15T10:12:31.733Z,4.00
2023-03-15T10:15:19.791Z,4.00
2023-03-15T10:18:08.021Z,4.00
2023-03-15T10:20:42.545Z,4.00
2023-03-15T10:23:20.236Z,4.00
2023-03-15T10:25:51.079Z,4.00
2023-03-15T10:28:28.246Z,4.00
2023-03-15T10:30:59.416Z,4.10
2023-03-15T10:33:35.849Z,4.20
2023-03-15T10:36:21.232Z,4.30
2023-03-15T10:38:50.295Z,4.30
2023-03-15T10:41:40.553Z,4.40
2023-03-15T10:44:21.414Z,4.50
2023-03-15T10:47:22.165Z,4.50
2023-03-15T10:49:50.742Z,4.60
2023-03-15T10:52:36.929Z,4.60
2023-03-15T10:55:12.667Z,4.70
2023-03-15T10:57:42.186Z,4.70
2023-03-15T11:00:30.975Z,4.70
2023-03-15T11:03:19.990Z,4.80
2023-03-15T11:05:49.744Z,5.00
2023-03-15T11:08:19.099Z,5.30
2023-03-15T11:10:54.293Z,5.60
2023-03-15T11:13:24.715Z,5.80
2023-03-15T11:16:08.324Z,5.90
2023-03-15T11:19:01.578Z,5.70
2023-03-15T11:21:35.044Z,5.40
2023-03-15T11:24:04.281Z,5.70
2023-03-15T11:26:36.048Z,6.00
2023-03-15T11:29:21.683Z,6.30
2023-03-15T11:31:50.053Z,6.50
2023-03-15T11:34:44.237Z,6.80
2023-03-15T11:37:20.822Z,7.10
2023-03-15T11:40:26.383Z,7.00
2023-03-15T11:42:58.641Z,6.80
2023-03-15T11:46:00.566Z,6.50
2023-03-15T11:48:51.464Z,6.50
2023-03-15T11:51:18.508Z,6.30
2023-03-15T11:53:50.124Z,6.40
2023-03-15T11:56:19.690Z,6.70
2023-03-15T11:59:02.041Z,7.00
2023-03-15T12:01:28.865Z,7.60
2023-03-15T12:04:32.629Z,7.90
2023-03-15T12:07:24.303Z,7.80
2023-03-15T12:09:56.263Z,7.80
2023-03-15T12:12:25.902Z,7.40
2023-03-15T12:15:14.574Z,7.70
2023-03-15T12:17:51.153Z,7.90
2023-03-15T12:20:22.866Z,7.90
2023-03-15T12:23:04.608Z,7.90
2023-03-15T12:25:45.356Z,8.10
2023-03-15T12:28:50.380Z,7.90
2023-03-15T12:31:17.577Z,8.00
2023-03-15T12:33:51.754Z,7.50
2023-03-15T12:36:37.994Z,7.70
2023-03-15T12:39:16.538Z,8.00
2023-03-15T12:41:52.186Z,8.20
2023-03-15T12:44:20.141Z,8.30
2023-03-15T12:46:46.777Z,8.40
2023-03-15T12:49:33.712Z,8.50
2023-03-15T12:52:13.524Z,8.40
2023-03-15T12:55:01.421Z,8.40
2023-03-15T12:57:31.040Z,8.40
2023-03-15T12:59:59.324Z,8.20
2023-03-15T13:02:42.070Z,8.10
2023-03-15T13:05:09.714Z,8.20
2023-03-15T13:08:05.378Z,8.20
2023-03-15T13:10:45.679Z,8.10
2023-03-15T13:13:18.159Z,8.00
2023-03-15T13:15:54.887Z,7.90
2023-03-15T13:18:24.225Z,7.80
2023-03-15T13:21:12.973Z,7.50
2023-03-15T13:23:44.564Z,7.30
2023-03-15T13:26:29.651Z,7.20
2023-03-15T13:29:08.209Z,7.10
2023-03-15T13:31:35.242Z,7.00
2023-03-15T13:34:22.523Z,7.00
2023-03-15T13:36:58.117Z,7.10
2023-03-15T13:39:27.545Z,7.10
2023-03-15T13:42:18.295Z,7.10
2023-03-15T13:44:45.042Z,7.10
2023-03-15T13:47:24.354Z,7.10
2023-03-15T13:49:54.141Z,6.90
2023-03-15T13:52:20.844Z,7.10
2023-03-15T13:54:47.919Z,7.20
2023-03-15T13:57:18.342Z,7.30
2023-03-15T13:59:47.268Z,7.30
2023-03-15T14:02:19.641Z,7.30
2023-03-15T14:05:01.820Z,7.40
2023-03-15T14:07:41.795Z,7.60
2023-03-15T14:10:10.036Z,7.60
2023-03-15T14:12:36.938Z,7.70
2023-03-15T14:15:03.857Z,7.70
2023-03-15T14:17:31.726Z,7.70
2023-03-15T14:20:08.917Z,7.90
2023-03-15T14:22:36.747Z,8.00
2023-03-15T14:25:04.506Z,8.30
2023-03-15T14:27:32.901Z,8.60
2023-03-15T14:30:02.300Z,8.90
2023-03-15T14:32:35.194Z,8.90
2023-03-15T14:35:31.243Z,9.20
2023-03-15T14:38:25.813Z,9.10
2023-03-15T14:40:54.113Z,9.30
2023-03-15T14:43:20.930Z,8.70
2023-03-15T14:45:49.175Z,8.40
2023-03-15T14:48:28.218Z,7.90
2023-03-15T14:50:55.431Z,7.50
2023-03-15T14:53:26.192Z,6.90
2023-03-15T14:55:52.866Z,6.80
2023-03-15T14:58:21.544Z,6.80
2023-03-15T15:00:51.226Z,6.90
2023-03-15T15:03:22.175Z,6.50
2023-03-15T15:05:49.052Z,6.50
2023-03-15T15:08:19.674Z,6.50
2023-03-15T15:10:48.209Z,6.60
2023-03-15T15:13:22.768Z,6.30
2023-03-15T15:15:55.801Z,6.20
2023-03-15T15:18:25.663Z,6.40
2023-03-15T15:20:55.631Z,6.40
2023-03-15T15:23:41.908Z,6.70
2023-03-15T15:26:23.322Z,6.90
2023-03-15T15:28:50.213Z,6.80
2023-03-15T15:31:19.627Z,6.70
2023-03-15T15:33:46.425Z,6.70
2023-03-15T15:36:16.768Z,6.90
2023-03-15T15:38:44.073Z,7.10
2023-03-15T15:41:16.328Z,7.10
2023-03-15T15:43:44.038Z,7.00
2023-03-15T15:46:12.356Z,7.10
2023-03-15T15:48:40.379Z,7.10
2023-03-15T15:51:38.544Z,6.70
2023-03-15T15:54:05.861Z,6.70
2023-03-15T15:56:44.053Z,6.90
2023-03-15T15:59:14.911Z,7.10
2023-03-15T16:01:56.503Z,6.90
2023-03-15T16:04:26.985Z,7.10
2023-03-15T16:06:59.325Z,7.20
2023-03-15T16:09:28.632Z,7.30
2023-03-15T16:11:55.498Z,7.30
2023-03-15T16:14:22.198Z,7.30
2023-03-15T16:16:48.994Z,7.20
2023-03-15T16:19:15.666Z,7.20
2023-03-15T16:21:47.564Z,7.20
2023-03-15T16:24:19.512Z,7.20
2023-03-15T16:26:47.706Z,6.90
2023-03-15T16:29:21.024Z,6.70
2023-03-15T16:31:47.908Z,6.70
2023-03-15T16:34:16.565Z,6.70
2023-03-15T16:36:48.571Z,6.50
2023-03-15T16:39:16.842Z,6.50
2023-03-15T16:41:43.526Z,6.60
2023-03-15T16:44:18.060Z,6.60
2023-03-15T16:46:45.395Z,6.60
2023-03-15T16:49:15.273Z,6.50
2023-03-15T16:51:45.750Z,6.60
2023-03-15T16:54:24.322Z,6.40
2023-03-15T16:56:57.825Z,6.40
2023-03-15T16:59:24.481Z,6.40
2023-03-15T17:01:51.391Z,6.50
2023-03-15T17:04:18.223Z,6.60
2023-03-15T17:06:46.073Z,6.60
2023-03-15T17:09:16.770Z,6.50
2023-03-15T17:11:46.510Z,6.50
2023-03-15T17:14:20.152Z,6.40
2023-03-15T17:16:46.862Z,6.30
2023-03-15T17:19:14.819Z,6.20
2023-03-15T17:21:42.837Z,6.20
2023-03-15T17:24:10.805Z,6.00
2023-03-15T17:26:38.604Z,5.80
2023-03-15T17:29:05.847Z,5.80
2023-03-15T17:31:34.657Z,5.70
2023-03-15T17:34:01.549Z,5.70
2023-03-15T17:36:32.617Z,5.60
2023-03-15T17:38:59.333Z,5.50
2023-03-15T17:41:29.495Z,5.50
2023-03-15T17:43:56.997Z,5.50
2023-03-15T17:46:29.808Z,5.40
2023-03-15T17:48:58.363Z,5.40
2023-03-15T17:51:28.572Z,5.30
2023-03-15T17:53:55.435Z,5.30
2023-03-15T17:56:24.916Z,5.30
2023-03-15T17:58:52.497Z,5.10
2023-03-15T18:01:22.323Z,5.10
2023-03-15T18:03:49.529Z,5.00
2023-03-15T18:06:18.707Z,4.90
2023-03-15T18:08:45.907Z,4.80
2023-03-15T18:11:25.958Z,4.80
2023-03-15T18:13:52.696Z,4.70
2023-03-15T18:16:19.625Z,4.60
2023-03-15T18:18:46.397Z,4.60
2023-03-15T18:21:25.822Z,4.60
2023-03-15T18:23:52.763Z,4.50
2023-03-15T18:26:20.391Z,4.60
2023-03-15T18:28:48.942Z,4.60
2023-03-15T18:31:21.171Z,4.40
2023-03-15T18:33:48.039Z,4.40
2023-03-15T18:36:14.993Z,4.50
2023-03-15T18:38:42.093Z,4.40
2023-03-15T18:41:21.175Z,4.40
2023-03-15T18:43:52.199Z,4.40
2023-03-15T18:46:27.260Z,4.40
2023-03-15T18:48:54.328Z,4.30
2023-03-15T18:51:25.047Z,4.20
2023-03-15T18:53:52.254Z,4.20
2023-03-15T18:56:22.170Z,4.20
2023-03-15T18:58:50.750Z,4.20
2023-03-15T19:01:19.933Z,4.10
2023-03-15T19:03:46.631Z,4.00
2023-03-15T19:06:14.175Z,3.90
2023-03-15T19:08:41.581Z,4.00
2023-03-15T19:11:08.453Z,3.90
2023-03-15T19:13:35.384Z,3.80
2023-03-15T19:16:02.423Z,3.80
2023-03-15T19:18:32.190Z,3.80
2023-03-15T19:20:59.293Z,3.80
2023-03-15T19:23:26.416Z,3.70
2023-03-15T19:25:53.120Z,3.70
2023-03-15T19:28:19.774Z,3.60
2023-03-15T19:30:46.537Z,3.50
2023-03-15T19:33:13.234Z,3.50
2023-03-15T19:35:40.051Z,3.50
2023-03-15T19:38:06.881Z,3.50
2023-03-15T19:40:33.684Z,3.60
2023-03-15T19:43:00.542Z,3.60
2023-03-15T19:45:27.230Z,3.60
2023-03-15T19:47:53.888Z,3.60
2023-03-15T19:50:20.828Z,3.60
2023-03-15T19:52:47.531Z,3.60
2023-03-15T19:55:19.378Z,3.60
2023-03-15T19:57:46.990Z,3.60
2023-03-15T20:00:16.062Z,3.60
2023-03-15T20:02:44.263Z,3.60
2023-03-15T20:05:14.952Z,3.50
2023-03-15T20:07:42.995Z,3.50
2023-03-15T20:10:10.971Z,3.50
2023-03-15T20:12:39.376Z,3.50
2023-03-15T20:15:09.011Z,3.50
2023-03-15T20:17:36.620Z,3.50
2023-03-15T20:20:09.304Z,3.40
2023-03-15T20:22:36.507Z,3.40
2023-03-15T20:25:03.632Z,3.40
2023-03-15T20:27:33.020Z,3.30
2023-03-15T20:30:00.063Z,3.20
2023-03-15T20:32:26.833Z,3.20
2023-03-15T20:34:57.152Z,3.20
2023-03-15T20:37:25.312Z,3.20
2023-03-15T20:39:52.021Z,3.10
2023-03-15T20:42:22.756Z,3.10
2023-03-15T20:44:49.451Z,2.90
2023-03-15T20:47:17.225Z,2.90
2023-03-15T20:49:44.050Z,2.90
2023-03-15T20:52:11.431Z,2.90
2023-03-15T20:54:38.089Z,2.90
2023-03-15T20:57:05.132Z,2.90
2023-03-15T20:59:32.017Z,2.90
2023-03-15T21:01:58.817Z,2.80
2023-03-15T21:04:26.101Z,2.80
2023-03-15T21:06:52.814Z,2.80
2023-03-15T21:09:19.618Z,2.80
2023-03-15T21:11:46.495Z,2.70
2023-03-15T21:14:13.147Z,2.70
2023-03-15T21:16:39.933Z,2.80
2023-03-15T21:19:06.641Z,2.70
2023-03-15T21:21:33.475Z,2.70
2023-03-15T21:24:00.121Z,2.70
2023-03-15T21:26:26.844Z,2.60
2023-03-15T21:28:53.462Z,2.60
2023-03-15T21:31:20.277Z,2.60
2023-03-15T21:33:48.607Z,2.70
2023-03-15T21:36:17.749Z,2.60
2023-03-15T21:38:44.569Z,2.60
2023-03-15T21:41:11.400Z,2.60
2023-03-15T21:43:38.639Z,2.50
2023-03-15T21:46:07.381Z,2.50
2023-03-15T21:48:35.117Z,2.40
2023-03-15T21:51:02.436Z,2.40
2023-03-15T21:53:30.936Z,2.40
2023-03-15T21:55:59.012Z,2.30
2023-03-15T21:58:26.989Z,2.30
2023-03-15T22:01:04.897Z,2.30
2023-03-15T22:03:32.846Z,2.30
2023-03-15T22:05:59.599Z,2.10
2023-03-15T22:08:27.108Z,2.10
2023-03-15T22:10:55.863Z,2.10
2023-03-15T22:13:22.565Z,2.10
2023-03-15T22:15:49.564Z,2.10
2023-03-15T22:18:16.199Z,2.00
2023-03-15T22:20:42.943Z,2.00
2023-03-15T22:23:09.642Z,1.90
2023-03-15T22:25:39.145Z,1.90
2023-03-15T22:28:06.553Z,1.90
2023-03-15T22:30:33.865Z,1.80
2023-03-15T22:33:00.802Z,1.80
2023-03-15T22:35:27.810Z,1.70
2023-03-15T22:37:56.745Z,1.60
2023-03-15T22:40:25.850Z,1.60
2023-03-15T22:42:53.271Z,1.60
2023-03-15T22:45:21.082Z,1.60
2023-03-15T22:47:49.033Z,1.50
2023-03-15T22:50:16.003Z,1.60
2023-03-15T22:52:43.234Z,1.60
2023-03-15T22:55:11.103Z,1.60
2023-03-15T22:57:38.118Z,1.60
2023-03-15T23:00:07.412Z,1.60
2023-03-15T23:02:34.115Z,1.50
2023-03-15T23:05:01.548Z,1.50
2023-03-15T23:07:28.322Z,1.50
2023-03-15T23:09:55.005Z,1.50
2023-03-15T23:12:27.159Z,1.50
2023-03-15T23:15:02.024Z,1.50
2023-03-15T23:17:30.255Z,1.40
2023-03-15T23:19:56.911Z,1.50
2023-03-15T23:22:23.619Z,1.40
2023-03-15T23:24:50.332Z,1.40
2023-03-15T23:27:17.350Z,1.30
2023-03-15T23:29:54.113Z,1.30
2023-03-15T23:32:22.445Z,1.30
2023-03-15T23:34:49.306Z,1.30
2023-03-15T23:37:16.062Z,1.30
2023-03-15T23:39:43.213Z,1.30
2023-03-15T23:42:10.250Z,1.30
2023-03-15T23:44:36.972Z,1.20
2023-03-15T23:47:05.507Z,1.20
2023-03-15T23:49:33.147Z,1.30
2023-03-15T23:52:05.237Z,1.20
2023-03-15T23:54:39.348Z,1.20
2023-03-15T23:57:11.829Z,1.10
2023-03-15T23:59:39.884Z,1.20
